N25EJ CYXU-CYTZ
Flight info
| Callsign | N25EJ |
|---|---|
| Flight time | 0h 40m |
| Altitude | 13000 |
| Route | CYXU2 DERLO T781 OLAMO |
| Aircraft | DA42/L-SBDGRY/S |
Departure
| Time | 2026-04-26 17:00 |
|---|---|
| Airport | London International Airport (CYXU) |
Arrival
| Time | 2026-04-26 17:41 |
|---|---|
| Airport | Billy Bishop Toronto City Airport (CYTZ) |
| Time | Latitude | Longitude | Altitude | Speed | Heading |
|---|---|---|---|---|---|
| 2026-04-26 16:48 | 43.03569 | -81.16237 | 908 ft | 0 kts | 254° |
| 2026-04-26 16:57 | 43.03570 | -81.16246 | 908 ft | 3 kts | 314° |
| 2026-04-26 16:58 | 43.03589 | -81.16247 | 908 ft | 3 kts | 356° |
| 2026-04-26 16:58 | 43.03597 | -81.16250 | 909 ft | 4 kts | 346° |
| 2026-04-26 16:58 | 43.03729 | -81.16289 | 910 ft | 0 kts | 344° |
| 2026-04-26 16:59 | 43.03738 | -81.16291 | 910 ft | 5 kts | 352° |
| 2026-04-26 17:00 | 43.03850 | -81.16086 | 910 ft | 47 kts | 80° |
| 2026-04-26 17:00 | 43.04071 | -81.14847 | 1361 ft | 73 kts | 70° |
| 2026-04-26 17:00 | 43.04158 | -81.14160 | 1834 ft | 73 kts | 78° |
| 2026-04-26 17:01 | 43.04241 | -81.13480 | 2316 ft | 73 kts | 73° |
| 2026-04-26 17:01 | 43.04330 | -81.12792 | 2674 ft | 76 kts | 75° |
| 2026-04-26 17:01 | 43.04423 | -81.12050 | 2935 ft | 82 kts | 73° |
| 2026-04-26 17:01 | 43.04568 | -81.11282 | 3175 ft | 83 kts | 52° |
| 2026-04-26 17:02 | 43.05010 | -81.10804 | 3460 ft | 82 kts | 27° |
| 2026-04-26 17:02 | 43.05503 | -81.10414 | 3760 ft | 82 kts | 26° |
| 2026-04-26 17:02 | 43.05991 | -81.10025 | 4058 ft | 81 kts | 26° |
| 2026-04-26 17:02 | 43.06457 | -81.09590 | 4354 ft | 83 kts | 42° |
| 2026-04-26 17:03 | 43.06744 | -81.08871 | 4666 ft | 91 kts | 67° |
| 2026-04-26 17:03 | 43.06895 | -81.08022 | 4958 ft | 94 kts | 66° |
| 2026-04-26 17:03 | 43.07049 | -81.07145 | 5241 ft | 96 kts | 66° |
| 2026-04-26 17:03 | 43.07203 | -81.06249 | 5529 ft | 98 kts | 66° |
| 2026-04-26 17:04 | 43.07360 | -81.05332 | 5803 ft | 100 kts | 66° |
| 2026-04-26 17:04 | 43.07520 | -81.04396 | 6085 ft | 102 kts | 65° |
| 2026-04-26 17:04 | 43.07684 | -81.03436 | 6377 ft | 105 kts | 65° |
| 2026-04-26 17:04 | 43.07849 | -81.02461 | 6664 ft | 106 kts | 65° |
| 2026-04-26 17:05 | 43.08015 | -81.01479 | 6934 ft | 106 kts | 65° |
| 2026-04-26 17:05 | 43.08207 | -81.00541 | 7229 ft | 87 kts | 20° |
| 2026-04-26 17:05 | 43.08601 | -81.01090 | 6561 ft | 108 kts | 343° |
| 2026-04-26 17:05 | 43.08929 | -81.01684 | 7193 ft | 107 kts | 252° |
| 2026-04-26 17:06 | 43.08302 | -81.02160 | 7522 ft | 111 kts | 205° |
| 2026-04-26 17:06 | 43.07503 | -81.02141 | 7547 ft | 139 kts | 131° |
| 2026-04-26 17:06 | 43.07458 | -81.01085 | 7719 ft | 108 kts | 38° |
| 2026-04-26 17:06 | 43.07977 | -81.00331 | 7903 ft | 114 kts | 40° |
| 2026-04-26 17:07 | 43.08327 | -80.99280 | 8099 ft | 127 kts | 61° |
| 2026-04-26 17:07 | 43.08569 | -80.98097 | 8309 ft | 131 kts | 64° |
| 2026-04-26 17:07 | 43.08790 | -80.96877 | 8507 ft | 133 kts | 64° |
| 2026-04-26 17:07 | 43.09011 | -80.95649 | 8718 ft | 134 kts | 65° |
| 2026-04-26 17:08 | 43.09215 | -80.94400 | 8919 ft | 134 kts | 64° |
| 2026-04-26 17:08 | 43.09427 | -80.93153 | 9128 ft | 134 kts | 64° |
| 2026-04-26 17:08 | 43.09640 | -80.91907 | 9330 ft | 135 kts | 63° |
| 2026-04-26 17:08 | 43.09851 | -80.90660 | 9540 ft | 134 kts | 63° |
| 2026-04-26 17:09 | 43.10062 | -80.89417 | 9746 ft | 133 kts | 63° |
| 2026-04-26 17:09 | 43.10211 | -80.88613 | 9897 ft | 132 kts | 66° |
| 2026-04-26 17:09 | 43.10327 | -80.86965 | 10209 ft | 125 kts | 59° |
| 2026-04-26 17:09 | 43.10588 | -80.85833 | 10398 ft | 125 kts | 58° |
| 2026-04-26 17:10 | 43.10833 | -80.84676 | 10584 ft | 128 kts | 60° |
| 2026-04-26 17:10 | 43.11053 | -80.83491 | 10779 ft | 129 kts | 61° |
| 2026-04-26 17:10 | 43.11263 | -80.82291 | 10968 ft | 130 kts | 62° |
| 2026-04-26 17:10 | 43.11470 | -80.81077 | 11163 ft | 131 kts | 62° |
| 2026-04-26 17:11 | 43.11677 | -80.79853 | 11355 ft | 132 kts | 62° |
| 2026-04-26 17:11 | 43.11883 | -80.78628 | 11552 ft | 132 kts | 62° |
| 2026-04-26 17:11 | 43.12089 | -80.77410 | 11749 ft | 134 kts | 62° |
| 2026-04-26 17:11 | 43.12299 | -80.76156 | 11947 ft | 135 kts | 62° |
| 2026-04-26 17:12 | 43.12720 | -80.73639 | 12344 ft | 136 kts | 62° |
| 2026-04-26 17:12 | 43.12934 | -80.72371 | 12541 ft | 137 kts | 62° |
| 2026-04-26 17:13 | 43.13357 | -80.69841 | 12947 ft | 137 kts | 62° |
| 2026-04-26 17:13 | 43.13583 | -80.68517 | 12996 ft | 149 kts | 63° |
| 2026-04-26 17:13 | 43.14078 | -80.65564 | 13007 ft | 166 kts | 65° |
| 2026-04-26 17:14 | 43.14338 | -80.63998 | 13003 ft | 170 kts | 65° |
| 2026-04-26 17:14 | 43.14870 | -80.60787 | 13009 ft | 175 kts | 65° |
| 2026-04-26 17:14 | 43.15141 | -80.59157 | 13010 ft | 176 kts | 65° |
| 2026-04-26 17:15 | 43.15687 | -80.55869 | 13011 ft | 178 kts | 65° |
| 2026-04-26 17:15 | 43.15962 | -80.54212 | 13013 ft | 178 kts | 65° |
| 2026-04-26 17:15 | 43.16236 | -80.52556 | 13013 ft | 178 kts | 65° |
| 2026-04-26 17:16 | 43.16510 | -80.50901 | 13008 ft | 178 kts | 66° |
| 2026-04-26 17:16 | 43.16784 | -80.49242 | 13010 ft | 179 kts | 66° |
| 2026-04-26 17:16 | 43.17059 | -80.47580 | 13010 ft | 179 kts | 65° |
| 2026-04-26 17:16 | 43.17334 | -80.45912 | 13009 ft | 179 kts | 65° |
| 2026-04-26 17:17 | 43.17609 | -80.44246 | 13007 ft | 179 kts | 66° |
| 2026-04-26 17:17 | 43.17884 | -80.42580 | 13011 ft | 180 kts | 66° |
| 2026-04-26 17:17 | 43.18159 | -80.40910 | 13013 ft | 180 kts | 66° |
| 2026-04-26 17:17 | 43.18434 | -80.39234 | 13012 ft | 180 kts | 66° |
| 2026-04-26 17:18 | 43.18709 | -80.37561 | 13009 ft | 180 kts | 66° |
| 2026-04-26 17:18 | 43.18984 | -80.35890 | 13007 ft | 179 kts | 66° |
| 2026-04-26 17:18 | 43.19258 | -80.34217 | 13008 ft | 180 kts | 66° |
| 2026-04-26 17:18 | 43.19529 | -80.32567 | 13010 ft | 180 kts | 66° |
| 2026-04-26 17:19 | 43.20078 | -80.29211 | 13012 ft | 180 kts | 66° |
| 2026-04-26 17:19 | 43.20352 | -80.27531 | 13015 ft | 181 kts | 66° |
| 2026-04-26 17:19 | 43.20626 | -80.25849 | 13015 ft | 181 kts | 66° |
| 2026-04-26 17:20 | 43.20901 | -80.24164 | 13010 ft | 181 kts | 66° |
| 2026-04-26 17:20 | 43.21083 | -80.23051 | 13013 ft | 181 kts | 66° |
| 2026-04-26 17:20 | 43.21448 | -80.20799 | 13013 ft | 181 kts | 66° |
| 2026-04-26 17:20 | 43.21725 | -80.19109 | 13012 ft | 181 kts | 66° |
| 2026-04-26 17:21 | 43.21998 | -80.17422 | 13011 ft | 181 kts | 66° |
| 2026-04-26 17:21 | 43.22269 | -80.15754 | 13013 ft | 181 kts | 66° |
| 2026-04-26 17:21 | 43.22542 | -80.14066 | 13013 ft | 181 kts | 66° |
| 2026-04-26 17:21 | 43.22816 | -80.12372 | 13011 ft | 182 kts | 66° |
| 2026-04-26 17:22 | 43.23091 | -80.10674 | 13008 ft | 182 kts | 66° |
| 2026-04-26 17:22 | 43.23365 | -80.08980 | 13009 ft | 182 kts | 66° |
| 2026-04-26 17:22 | 43.23639 | -80.07281 | 13011 ft | 182 kts | 66° |
| 2026-04-26 17:22 | 43.23912 | -80.05585 | 13012 ft | 182 kts | 66° |
| 2026-04-26 17:23 | 43.24186 | -80.03883 | 13007 ft | 183 kts | 67° |
| 2026-04-26 17:23 | 43.24462 | -80.02176 | 13007 ft | 183 kts | 67° |
| 2026-04-26 17:23 | 43.24734 | -80.00486 | 13008 ft | 184 kts | 67° |
| 2026-04-26 17:23 | 43.25012 | -79.98754 | 13009 ft | 184 kts | 67° |
| 2026-04-26 17:24 | 43.25284 | -79.97062 | 13007 ft | 184 kts | 67° |
| 2026-04-26 17:24 | 43.25559 | -79.95340 | 13005 ft | 184 kts | 67° |
| 2026-04-26 17:24 | 43.25834 | -79.93623 | 13008 ft | 184 kts | 67° |
| 2026-04-26 17:24 | 43.26109 | -79.91908 | 13003 ft | 184 kts | 67° |
| 2026-04-26 17:25 | 43.26385 | -79.90191 | 13002 ft | 184 kts | 66° |
| 2026-04-26 17:25 | 43.26848 | -79.88610 | 13004 ft | 174 kts | 50° |
| 2026-04-26 17:25 | 43.27590 | -79.87311 | 12868 ft | 173 kts | 35° |
| 2026-04-26 17:25 | 43.28490 | -79.86190 | 12689 ft | 175 kts | 28° |
| 2026-04-26 17:26 | 43.29514 | -79.85275 | 12513 ft | 176 kts | 25° |
| 2026-04-26 17:26 | 43.30536 | -79.84358 | 12338 ft | 179 kts | 27° |
| 2026-04-26 17:26 | 43.31568 | -79.83380 | 12167 ft | 181 kts | 28° |
| 2026-04-26 17:26 | 43.32599 | -79.82387 | 11997 ft | 182 kts | 28° |
| 2026-04-26 17:27 | 43.33638 | -79.81387 | 11822 ft | 182 kts | 29° |
| 2026-04-26 17:27 | 43.34678 | -79.80388 | 11645 ft | 183 kts | 29° |
| 2026-04-26 17:27 | 43.35722 | -79.79385 | 11479 ft | 183 kts | 29° |
| 2026-04-26 17:27 | 43.36765 | -79.78382 | 11310 ft | 183 kts | 29° |
| 2026-04-26 17:28 | 43.37809 | -79.77377 | 11140 ft | 183 kts | 30° |
| 2026-04-26 17:28 | 43.38856 | -79.76370 | 10970 ft | 184 kts | 30° |
| 2026-04-26 17:28 | 43.39890 | -79.75374 | 10810 ft | 184 kts | 30° |
| 2026-04-26 17:28 | 43.40937 | -79.74365 | 10645 ft | 184 kts | 30° |
| 2026-04-26 17:29 | 43.41984 | -79.73357 | 10475 ft | 184 kts | 31° |
| 2026-04-26 17:29 | 43.42676 | -79.72688 | 10366 ft | 181 kts | 31° |
| 2026-04-26 17:29 | 43.44016 | -79.71393 | 10138 ft | 172 kts | 30° |
| 2026-04-26 17:29 | 43.44982 | -79.70462 | 9950 ft | 167 kts | 31° |
| 2026-04-26 17:30 | 43.45932 | -79.69546 | 9686 ft | 167 kts | 31° |
| 2026-04-26 17:30 | 43.46884 | -79.68630 | 9425 ft | 167 kts | 31° |
| 2026-04-26 17:30 | 43.47845 | -79.67702 | 9059 ft | 171 kts | 31° |
| 2026-04-26 17:30 | 43.48830 | -79.66750 | 8655 ft | 175 kts | 32° |
| 2026-04-26 17:31 | 43.49949 | -79.66199 | 8245 ft | 174 kts | 358° |
| 2026-04-26 17:31 | 43.51027 | -79.66886 | 7848 ft | 178 kts | 316° |
| 2026-04-26 17:31 | 43.51478 | -79.68478 | 7486 ft | 186 kts | 274° |
| 2026-04-26 17:31 | 43.51026 | -79.70146 | 7144 ft | 193 kts | 232° |
| 2026-04-26 17:32 | 43.49872 | -79.71044 | 6805 ft | 195 kts | 189° |
| 2026-04-26 17:32 | 43.48578 | -79.70730 | 6457 ft | 190 kts | 147° |
| 2026-04-26 17:32 | 43.47775 | -79.69414 | 6102 ft | 181 kts | 105° |
| 2026-04-26 17:32 | 43.47799 | -79.67764 | 5742 ft | 171 kts | 64° |
| 2026-04-26 17:33 | 43.48522 | -79.66516 | 5393 ft | 167 kts | 36° |
| 2026-04-26 17:33 | 43.49492 | -79.65645 | 5045 ft | 166 kts | 32° |
| 2026-04-26 17:33 | 43.50498 | -79.64878 | 4677 ft | 165 kts | 29° |
| 2026-04-26 17:34 | 43.52560 | -79.63470 | 3946 ft | 164 kts | 28° |
| 2026-04-26 17:34 | 43.53592 | -79.62798 | 3599 ft | 164 kts | 28° |
| 2026-04-26 17:34 | 43.54627 | -79.62137 | 3229 ft | 164 kts | 28° |
| 2026-04-26 17:34 | 43.55655 | -79.61485 | 2869 ft | 164 kts | 28° |
| 2026-04-26 17:35 | 43.56611 | -79.60684 | 2532 ft | 158 kts | 52° |
| 2026-04-26 17:35 | 43.57141 | -79.59423 | 2377 ft | 148 kts | 60° |
| 2026-04-26 17:35 | 43.57730 | -79.58299 | 2221 ft | 143 kts | 44° |
| 2026-04-26 17:35 | 43.58490 | -79.57434 | 2062 ft | 140 kts | 39° |
| 2026-04-26 17:36 | 43.59186 | -79.56552 | 2018 ft | 131 kts | 53° |
| 2026-04-26 17:36 | 43.59589 | -79.55466 | 2015 ft | 125 kts | 72° |
| 2026-04-26 17:36 | 43.59821 | -79.54334 | 2016 ft | 120 kts | 72° |
| 2026-04-26 17:36 | 43.60048 | -79.53244 | 2015 ft | 117 kts | 72° |
| 2026-04-26 17:37 | 43.60261 | -79.52203 | 2026 ft | 108 kts | 72° |
| 2026-04-26 17:37 | 43.60457 | -79.51255 | 2021 ft | 101 kts | 72° |
| 2026-04-26 17:37 | 43.60646 | -79.50338 | 2023 ft | 98 kts | 72° |
| 2026-04-26 17:38 | 43.61013 | -79.48552 | 2023 ft | 97 kts | 72° |
| 2026-04-26 17:38 | 43.61195 | -79.47661 | 1975 ft | 96 kts | 73° |
| 2026-04-26 17:38 | 43.61311 | -79.47080 | 1926 ft | 91 kts | 75° |
| 2026-04-26 17:38 | 43.61443 | -79.46245 | 1853 ft | 82 kts | 76° |
| 2026-04-26 17:39 | 43.61536 | -79.45444 | 1582 ft | 90 kts | 81° |
| 2026-04-26 17:39 | 43.61677 | -79.44650 | 1388 ft | 84 kts | 71° |
| 2026-04-26 17:39 | 43.61880 | -79.43888 | 1168 ft | 85 kts | 71° |
| 2026-04-26 17:39 | 43.62089 | -79.43112 | 1005 ft | 88 kts | 69° |
| 2026-04-26 17:40 | 43.62298 | -79.42284 | 739 ft | 90 kts | 78° |
| 2026-04-26 17:40 | 43.62409 | -79.41756 | 631 ft | 85 kts | 75° |
| 2026-04-26 17:40 | 43.62641 | -79.40817 | 376 ft | 73 kts | 75° |
| 2026-04-26 17:40 | 43.62787 | -79.40182 | 260 ft | 60 kts | 75° |
| 2026-04-26 17:41 | 43.62881 | -79.39783 | 255 ft | 36 kts | 77° |
| 2026-04-26 17:41 | 43.62943 | -79.39641 | 257 ft | 9 kts | 342° |
| 2026-04-26 17:41 | 43.63004 | -79.39683 | 255 ft | 12 kts | 314° |
| 2026-04-26 17:41 | 43.63051 | -79.39767 | 254 ft | 11 kts | 312° |
| 2026-04-26 17:42 | 43.63077 | -79.39798 | 254 ft | 0 kts | 324° |
| 2026-04-26 17:43 | 43.61503 | -79.45767 | 1684 ft | 86 kts | 79° |